createdAt,value
2022-08-18T00:01:45.497Z,23.90
2022-08-18T00:04:35.306Z,23.30
2022-08-18T00:07:07.324Z,22.80
2022-08-18T00:09:38.955Z,21.80
2022-08-18T00:12:13.775Z,24.40
2022-08-18T00:14:43.644Z,21.90
2022-08-18T00:17:14.052Z,21.40
2022-08-18T00:19:47.793Z,22.00
2022-08-18T00:22:20.264Z,20.80
2022-08-18T00:24:52.630Z,19.80
2022-08-18T00:27:28.220Z,20.30
2022-08-18T00:29:59.955Z,20.40
2022-08-18T00:32:33.208Z,19.60
2022-08-18T00:35:09.772Z,22.30
2022-08-18T00:37:39.563Z,20.30
2022-08-18T00:40:12.738Z,21.70
2022-08-18T00:42:47.940Z,22.90
2022-08-18T00:45:22.773Z,23.00
2022-08-18T00:47:52.932Z,20.90
2022-08-18T00:50:27.944Z,22.10
2022-08-18T00:53:03.505Z,24.50
2022-08-18T00:55:33.901Z,23.00
2022-08-18T00:58:10.566Z,22.50
2022-08-18T01:00:40.401Z,23.90
2022-08-18T01:03:14.382Z,25.50
2022-08-18T01:05:49.189Z,25.20
2022-08-18T01:08:28.826Z,24.40
2022-08-18T01:11:02.422Z,20.80
2022-08-18T01:13:34.062Z,23.70
2022-08-18T01:16:24.067Z,23.60
2022-08-18T01:19:08.634Z,24.50
2022-08-18T01:21:53.118Z,24.60
2022-08-18T01:24:46.721Z,22.80
2022-08-18T01:27:18.530Z,23.40
2022-08-18T01:29:50.362Z,25.40
2022-08-18T01:32:23.629Z,25.50
2022-08-18T01:34:54.702Z,26.30
2022-08-18T01:37:25.773Z,26.00
2022-08-18T01:41:21.303Z,28.50
2022-08-18T01:42:46.162Z,27.80
2022-08-18T01:45:18.454Z,27.60
2022-08-18T01:47:50.299Z,28.80
2022-08-18T01:50:20.243Z,28.70
2022-08-18T01:52:53.143Z,28.80
2022-08-18T01:57:51.790Z,27.30
2022-08-18T02:00:21.913Z,26.70
2022-08-18T02:03:01.968Z,26.50
2022-08-18T02:05:37.112Z,26.80
2022-08-18T02:08:08.034Z,27.50
2022-08-18T02:10:38.494Z,27.30
2022-08-18T02:13:08.393Z,26.80
2022-08-18T02:15:38.062Z,26.40
2022-08-18T02:18:37.172Z,27.80
2022-08-18T02:21:11.227Z,27.30
2022-08-18T02:23:44.945Z,27.60
2022-08-18T02:26:23.921Z,28.40
2022-08-18T02:28:54.074Z,28.50
2022-08-18T02:31:25.815Z,28.70
2022-08-18T02:33:56.794Z,28.30
2022-08-18T02:36:26.495Z,29.10
2022-08-18T02:38:59.957Z,29.90
2022-08-18T02:41:30.833Z,30.50
2022-08-18T02:44:00.870Z,26.70
2022-08-18T02:46:31.296Z,28.30
2022-08-18T02:49:01.846Z,30.60
2022-08-18T02:51:31.887Z,30.30
2022-08-18T02:54:01.730Z,30.30
2022-08-18T02:56:40.551Z,33.30
2022-08-18T02:59:14.770Z,32.90
2022-08-18T03:01:46.371Z,33.90
2022-08-18T03:04:19.383Z,33.50
2022-08-18T03:06:49.383Z,34.80
2022-08-18T03:09:20.093Z,34.80
2022-08-18T03:11:50.189Z,34.90
2022-08-18T03:14:19.942Z,35.60
2022-08-18T03:16:53.652Z,36.50
2022-08-18T03:19:25.450Z,35.20
2022-08-18T03:21:57.229Z,37.70
2022-08-18T03:24:29.974Z,37.80
2022-08-18T03:27:00.168Z,37.40
2022-08-18T03:29:32.795Z,38.30
2022-08-18T03:32:04.914Z,35.10
2022-08-18T03:34:34.692Z,37.10
2022-08-18T03:37:05.223Z,38.90
2022-08-18T03:39:35.014Z,36.50
2022-08-18T03:42:05.192Z,35.60
2022-08-18T03:44:37.065Z,35.20
2022-08-18T03:47:09.749Z,39.10
2022-08-18T03:49:39.724Z,37.60
2022-08-18T03:52:10.767Z,37.00
2022-08-18T03:54:41.035Z,39.10
2022-08-18T03:57:12.195Z,34.30
2022-08-18T03:59:43.048Z,37.20
2022-08-18T04:02:12.928Z,35.50
2022-08-18T04:04:43.230Z,35.50
2022-08-18T04:07:16.554Z,34.60
2022-08-18T04:12:17.156Z,32.40
2022-08-18T04:14:49.787Z,30.70
2022-08-18T04:17:24.520Z,32.60
2022-08-18T04:19:55.136Z,31.10
2022-08-18T04:22:25.971Z,30.40
2022-08-18T04:24:56.302Z,29.80
2022-08-18T04:27:28.462Z,31.10
2022-08-18T04:29:59.470Z,30.10
2022-08-18T04:32:31.479Z,33.80
2022-08-18T04:35:02.810Z,32.10
2022-08-18T04:37:33.224Z,31.00
2022-08-18T04:40:13.958Z,31.00
2022-08-18T04:42:44.417Z,30.80
2022-08-18T04:45:14.178Z,30.00
2022-08-18T04:47:43.702Z,31.60
2022-08-18T04:50:14.590Z,31.60
2022-08-18T04:53:02.512Z,29.30
2022-08-18T04:55:32.320Z,28.50
2022-08-18T04:58:02.101Z,29.00
2022-08-18T05:00:31.990Z,29.80
2022-08-18T05:03:01.511Z,29.50
2022-08-18T05:05:31.030Z,30.40
2022-08-18T05:08:00.801Z,29.70
2022-08-18T05:10:30.493Z,28.50
2022-08-18T05:13:00.713Z,28.10
2022-08-18T05:15:46.917Z,26.10
2022-08-18T05:18:23.853Z,24.20
2022-08-18T05:20:58.420Z,25.20
2022-08-18T05:23:29.686Z,27.60
2022-08-18T05:26:01.093Z,26.70
2022-08-18T05:28:31.241Z,27.00
2022-08-18T05:31:06.662Z,26.20
2022-08-18T05:33:39.711Z,33.60
2022-08-18T05:36:28.810Z,25.40
2022-08-18T05:39:06.903Z,22.10
2022-08-18T05:41:39.671Z,21.90
2022-08-18T05:44:13.996Z,22.20
2022-08-18T05:46:49.083Z,21.10
2022-08-18T05:49:20.293Z,20.60
2022-08-18T05:51:52.977Z,20.40
2022-08-18T05:54:42.895Z,18.90
2022-08-18T05:57:17.620Z,21.90
2022-08-18T05:59:49.182Z,19.80
2022-08-18T06:02:31.116Z,20.10
2022-08-18T06:05:03.671Z,20.70
2022-08-18T06:07:37.801Z,23.30
2022-08-18T06:10:12.113Z,19.20
2022-08-18T06:12:47.215Z,17.30
2022-08-18T06:15:39.687Z,18.70
2022-08-18T06:18:37.886Z,18.90
2022-08-18T06:21:29.819Z,20.10
2022-08-18T06:24:11.620Z,19.50
2022-08-18T06:26:50.946Z,21.20
2022-08-18T06:29:37.541Z,19.80
2022-08-18T06:32:17.433Z,20.00
2022-08-18T06:35:03.691Z,17.70
2022-08-18T06:38:00.697Z,18.20
2022-08-18T06:40:30.969Z,18.40
2022-08-18T06:43:02.255Z,17.50
2022-08-18T06:45:39.890Z,16.40
2022-08-18T06:48:29.251Z,18.30
2022-08-18T06:51:02.080Z,18.40
2022-08-18T06:56:26.989Z,17.70
2022-08-18T06:59:15.800Z,17.90
2022-08-18T07:01:47.243Z,18.10
2022-08-18T07:04:42.022Z,17.70
2022-08-18T07:07:40.226Z,17.60
2022-08-18T07:10:32.240Z,16.80
2022-08-18T07:13:20.823Z,17.50
2022-08-18T07:15:51.321Z,15.60
2022-08-18T07:18:27.101Z,15.90
2022-08-18T07:20:59.322Z,16.80
2022-08-18T07:23:34.292Z,16.00
2022-08-18T07:26:10.012Z,17.90
2022-08-18T07:28:44.066Z,16.80
2022-08-18T07:31:25.125Z,16.60
2022-08-18T07:33:59.951Z,16.40
2022-08-18T07:36:36.026Z,16.40
2022-08-18T07:39:14.863Z,16.30
2022-08-18T07:41:52.779Z,14.20
2022-08-18T07:44:33.603Z,16.10
2022-08-18T07:47:07.691Z,14.40
2022-08-18T07:49:54.493Z,14.30
2022-08-18T07:52:44.327Z,14.50
2022-08-18T07:55:26.821Z,14.00
2022-08-18T07:58:05.338Z,14.90
2022-08-18T08:00:59.944Z,15.90
2022-08-18T08:03:40.772Z,13.60
2022-08-18T08:06:19.820Z,17.20
2022-08-18T08:09:00.612Z,13.00
2022-08-18T08:11:44.591Z,17.70
2022-08-18T08:14:29.424Z,16.40
2022-08-18T08:17:06.858Z,15.30
2022-08-18T08:20:00.546Z,15.50
2022-08-18T08:22:36.013Z,14.20
2022-08-18T08:25:28.653Z,14.40
2022-08-18T08:28:11.994Z,14.30
2022-08-18T08:30:48.572Z,14.30
2022-08-18T08:33:27.283Z,14.60
2022-08-18T08:36:09.927Z,14.20
2022-08-18T08:38:45.531Z,13.30
2022-08-18T08:41:41.041Z,13.60
2022-08-18T08:44:18.390Z,12.60
2022-08-18T08:46:53.015Z,12.30
2022-08-18T08:49:33.910Z,13.70
2022-08-18T08:52:10.497Z,13.10
2022-08-18T08:54:51.203Z,13.50
2022-08-18T08:57:26.700Z,14.90
2022-08-18T09:00:07.731Z,12.20
2022-08-18T09:03:00.685Z,13.20
2022-08-18T09:05:36.275Z,13.40
2022-08-18T09:08:31.666Z,13.20
2022-08-18T09:11:44.598Z,11.70
2022-08-18T09:14:33.532Z,14.40
2022-08-18T09:17:23.462Z,12.90
2022-08-18T09:20:16.744Z,11.80
2022-08-18T09:22:52.021Z,11.80
2022-08-18T09:25:54.278Z,11.50
2022-08-18T09:28:56.191Z,11.50
2022-08-18T09:31:31.633Z,10.40
2022-08-18T09:34:25.561Z,11.20
2022-08-18T09:37:15.685Z,12.50
2022-08-18T09:40:14.073Z,11.00
2022-08-18T09:42:52.703Z,12.60
2022-08-18T09:45:57.607Z,11.20
2022-08-18T09:48:30.583Z,11.40
2022-08-18T09:51:23.346Z,12.00
2022-08-18T09:54:12.925Z,12.70
2022-08-18T09:57:19.539Z,10.80
2022-08-18T10:00:11.554Z,13.00
2022-08-18T10:03:25.731Z,10.80
2022-08-18T10:06:20.658Z,11.60
2022-08-18T10:09:27.104Z,12.10
2022-08-18T10:12:29.714Z,12.30
2022-08-18T10:17:52.893Z,9.50
2022-08-18T10:20:37.301Z,10.90
2022-08-18T10:23:08.013Z,10.30
2022-08-18T10:25:42.211Z,12.40
2022-08-18T10:28:34.084Z,12.10
2022-08-18T10:31:10.014Z,10.10
2022-08-18T10:34:05.554Z,10.40
2022-08-18T10:36:52.211Z,11.10
2022-08-18T10:39:27.738Z,12.60
2022-08-18T10:42:14.861Z,10.80
2022-08-18T10:44:47.365Z,10.80
2022-08-18T10:47:24.971Z,10.30
2022-08-18T10:49:55.669Z,11.90
2022-08-18T10:53:35.342Z,12.40
2022-08-18T10:56:02.524Z,9.90
2022-08-18T10:59:04.577Z,10.70
2022-08-18T11:01:50.282Z,10.00
2022-08-18T11:04:36.672Z,9.70
2022-08-18T11:07:11.062Z,8.90
2022-08-18T11:09:51.016Z,9.80
2022-08-18T11:12:55.854Z,9.20
2022-08-18T11:15:38.276Z,11.20
2022-08-18T11:18:19.903Z,10.50
2022-08-18T11:20:52.060Z,9.10
2022-08-18T11:23:22.207Z,9.00
2022-08-18T11:25:58.702Z,9.20
2022-08-18T11:28:31.823Z,8.70
2022-08-18T11:31:02.580Z,9.30
2022-08-18T11:33:42.177Z,11.00
2022-08-18T11:36:17.194Z,8.10
2022-08-18T11:38:56.433Z,9.30
2022-08-18T11:41:48.186Z,10.10
2022-08-18T11:44:24.639Z,10.10
2022-08-18T11:47:08.971Z,9.60
2022-08-18T11:49:45.852Z,9.90
2022-08-18T11:52:29.544Z,8.40
2022-08-18T11:55:14.755Z,11.60
2022-08-18T11:57:59.187Z,10.00
2022-08-18T12:00:54.821Z,10.10
2022-08-18T12:03:37.773Z,10.80
2022-08-18T12:06:21.925Z,9.80
2022-08-18T12:09:01.990Z,9.00
2022-08-18T12:11:35.370Z,7.80
2022-08-18T12:14:31.832Z,8.60
2022-08-18T12:17:01.453Z,8.40
2022-08-18T12:19:34.640Z,9.50
2022-08-18T12:22:16.032Z,8.60
2022-08-18T12:27:23.231Z,9.70
2022-08-18T12:29:55.441Z,8.20
2022-08-18T12:32:49.152Z,7.80
2022-08-18T12:35:21.813Z,12.90
2022-08-18T12:38:11.088Z,7.00
2022-08-18T12:40:42.646Z,11.80
2022-08-18T12:43:12.632Z,10.30
2022-08-18T12:45:44.433Z,9.40
2022-08-18T12:48:14.287Z,10.40
2022-08-18T12:53:58.037Z,10.70
2022-08-18T12:56:30.037Z,9.70
2022-08-18T12:59:04.332Z,7.80
2022-08-18T13:01:36.013Z,8.50
2022-08-18T13:04:12.433Z,7.40
2022-08-18T13:07:00.305Z,10.00
2022-08-18T13:09:34.658Z,8.10
2022-08-18T13:12:16.371Z,9.60
2022-08-18T13:14:47.413Z,7.60
2022-08-18T13:17:29.754Z,8.00
2022-08-18T13:20:09.076Z,8.20
2022-08-18T13:22:40.632Z,7.60
2022-08-18T13:25:12.922Z,8.40
2022-08-18T13:27:59.008Z,7.80
2022-08-18T13:30:30.252Z,7.80
2022-08-18T13:33:05.770Z,8.10
2022-08-18T13:35:54.813Z,6.80
2022-08-18T13:38:27.625Z,7.40
2022-08-18T13:41:01.000Z,7.50
2022-08-18T13:43:35.738Z,8.20
2022-08-18T13:46:09.061Z,7.60
2022-08-18T13:48:41.427Z,8.50
2022-08-18T13:51:19.867Z,6.70
2022-08-18T13:53:59.045Z,7.80
2022-08-18T13:56:39.922Z,8.10
2022-08-18T13:59:10.042Z,6.60
2022-08-18T14:01:44.349Z,7.70
2022-08-18T14:04:27.774Z,6.70
2022-08-18T14:06:59.951Z,9.80
2022-08-18T14:09:37.068Z,9.20
2022-08-18T14:12:22.750Z,8.10
2022-08-18T14:14:55.045Z,7.30
2022-08-18T14:17:25.993Z,7.50
2022-08-18T14:20:21.833Z,5.90
2022-08-18T14:23:14.231Z,7.90
2022-08-18T14:26:21.342Z,6.70
2022-08-18T14:28:53.882Z,7.00
2022-08-18T14:31:23.983Z,9.50
2022-08-18T14:33:55.516Z,7.10
2022-08-18T14:36:29.791Z,8.00
2022-08-18T14:39:01.108Z,7.80
2022-08-18T14:41:31.821Z,7.20
2022-08-18T14:44:13.646Z,9.70
2022-08-18T14:46:54.118Z,6.60
2022-08-18T14:49:28.506Z,8.80
2022-08-18T14:52:00.524Z,7.80
2022-08-18T14:54:31.474Z,7.40
2022-08-18T14:57:05.269Z,6.60
2022-08-18T14:59:37.968Z,8.80
2022-08-18T15:02:13.117Z,6.80
2022-08-18T15:04:55.927Z,7.50
2022-08-18T15:07:27.818Z,6.60
2022-08-18T15:10:15.075Z,6.40
2022-08-18T15:12:46.717Z,6.30
2022-08-18T15:15:18.043Z,11.50
2022-08-18T15:17:50.364Z,8.60
2022-08-18T15:20:29.486Z,7.70
2022-08-18T15:23:22.658Z,7.00
2022-08-18T15:25:54.978Z,9.10
2022-08-18T15:28:27.523Z,8.20
2022-08-18T15:33:51.393Z,9.60
2022-08-18T15:36:28.959Z,10.10
2022-08-18T15:38:59.564Z,7.00
2022-08-18T15:41:32.548Z,7.30
2022-08-18T15:44:07.426Z,8.60
2022-08-18T15:46:39.234Z,7.50
2022-08-18T15:49:14.877Z,24.10
2022-08-18T15:51:45.662Z,7.90
2022-08-18T15:54:15.526Z,6.40
2022-08-18T15:56:45.305Z,7.70
2022-08-18T15:59:34.099Z,6.40
2022-08-18T16:02:11.893Z,7.20
2022-08-18T16:04:48.012Z,6.60
2022-08-18T16:07:25.082Z,8.10
2022-08-18T16:10:02.682Z,6.80
2022-08-18T16:12:32.411Z,8.40
2022-08-18T16:15:04.515Z,6.30
2022-08-18T16:17:37.564Z,6.40
2022-08-18T16:20:10.670Z,6.80
2022-08-18T16:22:40.663Z,5.90
2022-08-18T16:25:11.313Z,7.50
2022-08-18T16:27:41.647Z,6.50
2022-08-18T16:30:14.127Z,6.10
2022-08-18T16:32:47.059Z,5.90
2022-08-18T16:35:18.368Z,7.00
2022-08-18T16:37:49.298Z,5.80
2022-08-18T16:40:21.067Z,5.60
2022-08-18T16:42:55.417Z,9.30
2022-08-18T16:45:25.148Z,5.80
2022-08-18T16:47:56.720Z,7.30
2022-08-18T16:50:27.086Z,6.40
2022-08-18T16:52:57.869Z,5.70
2022-08-18T16:55:30.669Z,6.10
2022-08-18T16:58:19.840Z,8.60
2022-08-18T17:01:09.369Z,7.60
2022-08-18T17:03:58.680Z,8.30
2022-08-18T17:06:28.841Z,6.20
2022-08-18T17:09:02.773Z,7.20
2022-08-18T17:11:48.120Z,7.20
2022-08-18T17:14:22.436Z,7.20
2022-08-18T17:16:54.612Z,7.80
2022-08-18T17:19:26.499Z,7.40
2022-08-18T17:21:56.513Z,8.70
2022-08-18T17:24:32.176Z,7.00
2022-08-18T17:27:25.790Z,6.80
2022-08-18T17:30:03.262Z,8.40
2022-08-18T17:32:42.218Z,8.20
2022-08-18T17:35:15.497Z,9.60
2022-08-18T17:37:52.062Z,7.10
2022-08-18T17:40:31.273Z,7.10
2022-08-18T17:43:06.162Z,7.00
2022-08-18T17:45:39.042Z,7.90
2022-08-18T17:48:14.000Z,7.80
2022-08-18T17:51:07.003Z,6.90
2022-08-18T17:53:40.422Z,7.30
2022-08-18T17:56:18.631Z,7.10
2022-08-18T17:58:56.186Z,7.60
2022-08-18T18:01:28.899Z,7.70
2022-08-18T18:06:38.420Z,8.20
2022-08-18T18:09:10.467Z,7.20
2022-08-18T18:11:43.629Z,9.20
2022-08-18T18:14:29.791Z,7.10
2022-08-18T18:17:10.869Z,6.90
2022-08-18T18:19:46.633Z,7.20
2022-08-18T18:22:23.703Z,9.90
2022-08-18T18:24:57.113Z,8.40
2022-08-18T18:27:30.292Z,8.40
2022-08-18T18:30:05.741Z,6.80
2022-08-18T18:32:49.163Z,7.20
2022-08-18T18:35:34.041Z,7.60
2022-08-18T18:38:22.991Z,8.40
2022-08-18T18:40:59.762Z,8.00
2022-08-18T18:43:36.633Z,9.00
2022-08-18T18:46:29.942Z,8.20
2022-08-18T18:51:43.775Z,7.80
2022-08-18T18:54:26.848Z,9.10
2022-08-18T18:56:57.745Z,8.60
2022-08-18T18:59:41.305Z,9.50
2022-08-18T19:02:33.543Z,12.40
2022-08-18T19:05:18.485Z,9.20
2022-08-18T19:08:16.874Z,11.80
2022-08-18T19:10:56.193Z,8.00
2022-08-18T19:13:34.919Z,8.30
2022-08-18T19:16:23.490Z,9.30
2022-08-18T19:19:38.306Z,8.00
2022-08-18T19:22:04.549Z,9.10
2022-08-18T19:24:48.233Z,9.20
2022-08-18T19:27:27.797Z,10.90
2022-08-18T19:30:08.452Z,9.50
2022-08-18T19:32:43.897Z,9.10
2022-08-18T19:35:19.592Z,8.90
2022-08-18T19:38:04.452Z,9.00
2022-08-18T19:40:41.937Z,9.00
2022-08-18T19:43:30.124Z,12.30
2022-08-18T19:46:10.618Z,10.50
2022-08-18T19:48:51.021Z,10.10
2022-08-18T19:51:28.903Z,11.50
2022-08-18T19:54:12.832Z,10.80
2022-08-18T19:57:03.177Z,10.70
2022-08-18T19:59:51.162Z,12.00
2022-08-18T20:02:33.524Z,10.30
2022-08-18T20:05:20.773Z,12.00
2022-08-18T20:08:29.923Z,11.70
2022-08-18T20:11:41.249Z,11.00
2022-08-18T20:14:17.088Z,12.80
2022-08-18T20:17:16.743Z,13.50
2022-08-18T20:20:06.196Z,12.60
2022-08-18T20:22:42.003Z,11.80
2022-08-18T20:25:42.941Z,13.10
2022-08-18T20:28:32.664Z,14.60
2022-08-18T20:31:12.123Z,12.10
2022-08-18T20:33:46.531Z,12.00
2022-08-18T20:36:31.685Z,14.20
2022-08-18T20:39:32.821Z,11.30
2022-08-18T20:42:03.534Z,12.80
2022-08-18T20:44:57.503Z,11.50
2022-08-18T20:47:42.654Z,12.50
2022-08-18T20:50:43.001Z,12.00
2022-08-18T20:53:25.614Z,13.30
2022-08-18T20:56:12.890Z,12.80
2022-08-18T20:58:57.368Z,11.70
2022-08-18T21:01:29.613Z,11.50
2022-08-18T21:04:02.507Z,11.30
2022-08-18T21:09:05.259Z,11.10
2022-08-18T21:11:42.542Z,11.50
2022-08-18T21:14:23.273Z,12.30
2022-08-18T21:16:53.379Z,11.70
2022-08-18T21:19:25.481Z,11.90
2022-08-18T21:21:57.851Z,15.20
2022-08-18T21:24:34.526Z,12.50
2022-08-18T21:27:08.160Z,10.90
2022-08-18T21:29:47.550Z,14.30
2022-08-18T21:32:23.981Z,11.30
2022-08-18T21:34:54.122Z,12.20
2022-08-18T21:37:23.980Z,12.00
2022-08-18T21:39:56.211Z,14.50
2022-08-18T21:42:31.299Z,12.90
2022-08-18T21:45:01.449Z,11.70
2022-08-18T21:47:33.474Z,12.00
2022-08-18T21:50:10.231Z,15.80
2022-08-18T21:52:50.562Z,14.30
2022-08-18T21:55:26.507Z,14.90
2022-08-18T21:58:07.404Z,14.00
2022-08-18T22:00:40.111Z,13.30
2022-08-18T22:03:27.024Z,13.60
2022-08-18T22:06:03.118Z,11.60
2022-08-18T22:08:46.534Z,16.30
2022-08-18T22:12:01.014Z,15.40
2022-08-18T22:14:53.877Z,14.50
2022-08-18T22:17:32.562Z,12.90
2022-08-18T22:20:36.382Z,13.60
2022-08-18T22:23:42.460Z,13.20
2022-08-18T22:26:20.024Z,13.30
2022-08-18T22:29:00.574Z,12.50
2022-08-18T22:31:32.523Z,13.50
2022-08-18T22:34:06.865Z,13.60
2022-08-18T22:36:39.823Z,14.30
2022-08-18T22:41:41.900Z,14.90
2022-08-18T22:44:11.624Z,15.10
2022-08-18T22:46:41.522Z,14.10
2022-08-18T22:49:11.011Z,13.10
2022-08-18T22:51:40.851Z,14.90
2022-08-18T22:54:14.415Z,14.50
2022-08-18T22:56:53.949Z,13.70
2022-08-18T22:59:26.859Z,13.40
2022-08-18T23:01:59.382Z,15.80
2022-08-18T23:04:29.180Z,14.00
2022-08-18T23:07:00.108Z,13.40
2022-08-18T23:09:31.870Z,14.10
2022-08-18T23:12:04.651Z,14.40
2022-08-18T23:14:34.892Z,19.10
2022-08-18T23:17:06.802Z,14.30
2022-08-18T23:19:36.484Z,14.10
2022-08-18T23:22:08.530Z,13.50
2022-08-18T23:24:38.491Z,12.90
2022-08-18T23:27:09.070Z,13.40
2022-08-18T23:29:40.891Z,13.80
2022-08-18T23:32:10.711Z,13.90
2022-08-18T23:34:40.812Z,13.40
2022-08-18T23:37:11.021Z,14.80
2022-08-18T23:39:43.472Z,15.90
2022-08-18T23:42:13.751Z,14.10
2022-08-18T23:44:43.372Z,14.90
2022-08-18T23:47:13.191Z,13.80
2022-08-18T23:49:42.772Z,13.40
2022-08-18T23:52:12.407Z,14.20
2022-08-18T23:54:54.170Z,14.00
2022-08-18T23:57:23.702Z,14.00
2022-08-18T23:59:56.310Z,17.10
